Wetterdaten: Woche 28.02.11 - 06.03.11 (KW9)
Datum Zeit Temperatur Luftfeuchte Luftdruck Niederschlag Windrichtung Sonnenschein Solar Wind
28.02.2011 00:00 2,1 C 95 % 1017,5 hPa 0,0 l/m O-NO 0,00 h 0 W/m 3,7 km/h (1 Bft)
28.02.2011 01:00 2,0 C 95 % 1017,8 hPa 0,0 l/m O-NO 0,00 h 0 W/m 3,7 km/h (1 Bft)
28.02.2011 02:00 1,9 C 96 % 1017,6 hPa 0,0 l/m NO 0,00 h 0 W/m 4,8 km/h (1 Bft)
28.02.2011 03:00 1,8 C 96 % 1017,5 hPa 0,0 l/m N-NO 0,00 h 0 W/m 7,1 km/h (2 Bft)
28.02.2011 04:00 1,9 C 96 % 1017,9 hPa 0,0 l/m N-NO 0,00 h 0 W/m 8,6 km/h (2 Bft)
28.02.2011 05:00 1,9 C 95 % 1018,2 hPa 0,0 l/m N-NO 0,00 h 0 W/m 9,7 km/h (2 Bft)
28.02.2011 06:00 2,1 C 95 % 1018,4 hPa 0,0 l/m NO 0,00 h 0 W/m 13,2 km/h (3 Bft)
28.02.2011 07:00 2,2 C 96 % 1018,6 hPa 0,0 l/m NO 0,00 h 10 W/m 13,2 km/h (3 Bft)
28.02.2011 08:00 2,3 C 96 % 1019,1 hPa 0,0 l/m NO 0,00 h 22 W/m 14,4 km/h (3 Bft)
28.02.2011 09:00 2,5 C 97 % 1019,4 hPa 0,0 l/m O-NO 0,00 h 52 W/m 13,0 km/h (3 Bft)
28.02.2011 10:00 3,0 C 95 % 1019,7 hPa 0,0 l/m O-NO 0,00 h 65 W/m 16,5 km/h (3 Bft)
28.02.2011 11:00 3,3 C 93 % 1019,9 hPa 0,0 l/m O-NO 0,00 h 71 W/m 15,2 km/h (3 Bft)
28.02.2011 12:00 3,5 C 91 % 1020,0 hPa 0,0 l/m O-NO 0,00 h 108 W/m 17,2 km/h (3 Bft)
28.02.2011 13:00 3,5 C 89 % 1020,1 hPa 0,0 l/m O 0,00 h 67 W/m 19,3 km/h (3 Bft)
28.02.2011 14:00 3,4 C 88 % 1020,3 hPa 0,0 l/m O-NO 0,00 h 49 W/m 15,0 km/h (3 Bft)
28.02.2011 15:00 3,5 C 88 % 1020,4 hPa 0,0 l/m O-NO 0,00 h 39 W/m 14,8 km/h (3 Bft)
28.02.2011 16:00 3,6 C 88 % 1020,6 hPa 0,0 l/m O 0,00 h 18 W/m 12,9 km/h (3 Bft)
28.02.2011 17:00 3,5 C 89 % 1020,8 hPa 0,0 l/m O 0,00 h 9 W/m 11,9 km/h (2 Bft)
28.02.2011 18:00 3,6 C 86 % 1021,2 hPa 0,0 l/m O-NO 0,00 h 0 W/m 12,1 km/h (2 Bft)
28.02.2011 19:00 3,5 C 88 % 1021,4 hPa 0,0 l/m O-NO 0,00 h 0 W/m 7,2 km/h (2 Bft)
28.02.2011 20:00 3,4 C 89 % 1021,7 hPa 0,0 l/m O-NO 0,00 h 0 W/m 4,1 km/h (1 Bft)
28.02.2011 21:00 3,3 C 89 % 1021,9 hPa 0,0 l/m NO 0,00 h 0 W/m 3,5 km/h (1 Bft)
28.02.2011 22:00 3,2 C 91 % 1022,2 hPa 0,0 l/m N-NO 0,00 h 0 W/m 8,1 km/h (2 Bft)
28.02.2011 23:00 3,1 C 89 % 1022,6 hPa 0,0 l/m NO 0,00 h 0 W/m 10,3 km/h (2 Bft)
01.03.2011 00:00 2,1 C 90 % 1022,9 hPa 0,0 l/m NO 0,00 h 0 W/m 7,8 km/h (2 Bft)
01.03.2011 01:00 1,2 C 92 % 1023,1 hPa 0,0 l/m NO 0,00 h 0 W/m 9,0 km/h (2 Bft)
01.03.2011 02:00 0,7 C 93 % 1023,4 hPa 0,0 l/m NO 0,00 h 0 W/m 8,2 km/h (2 Bft)
01.03.2011 03:00 0,8 C 93 % 1023,4 hPa 0,0 l/m O-NO 0,00 h 0 W/m 9,9 km/h (2 Bft)
01.03.2011 04:00 0,7 C 93 % 1023,4 hPa 0,0 l/m NO 0,00 h 0 W/m 13,6 km/h (3 Bft)
01.03.2011 05:00 0,6 C 93 % 1023,8 hPa 0,0 l/m O-NO 0,00 h 0 W/m 13,8 km/h (3 Bft)
01.03.2011 06:00 0,6 C 93 % 1024,2 hPa 0,0 l/m NO 0,00 h 0 W/m 12,5 km/h (3 Bft)
01.03.2011 07:00 0,5 C 93 % 1024,7 hPa 0,0 l/m NO 0,00 h 14 W/m 15,2 km/h (3 Bft)
01.03.2011 08:00 0,4 C 92 % 1025,2 hPa 0,0 l/m NO 0,00 h 51 W/m 14,0 km/h (3 Bft)
01.03.2011 09:00 0,7 C 91 % 1025,5 hPa 0,0 l/m O-NO 0,00 h 137 W/m 15,7 km/h (3 Bft)
01.03.2011 10:00 2,5 C 86 % 1025,5 hPa 0,0 l/m O-NO 0,75 h 357 W/m 14,4 km/h (3 Bft)
01.03.2011 11:00 5,1 C 77 % 1025,5 hPa 0,0 l/m NO 1,00 h 512 W/m 20,2 km/h (4 Bft)
01.03.2011 12:00 6,6 C 71 % 1025,2 hPa 0,0 l/m O-NO 1,00 h 558 W/m 27,1 km/h (4 Bft)
01.03.2011 13:00 7,4 C 67 % 1024,6 hPa 0,0 l/m O-NO 1,00 h 536 W/m 26,3 km/h (4 Bft)
01.03.2011 14:00 7,9 C 64 % 1024,2 hPa 0,0 l/m O 0,83 h 429 W/m 25,6 km/h (4 Bft)
01.03.2011 15:00 7,3 C 64 % 1024,3 hPa 0,0 l/m O-NO 0,50 h 221 W/m 23,0 km/h (4 Bft)
01.03.2011 16:00 6,7 C 65 % 1024,4 hPa 0,0 l/m O 0,75 h 143 W/m 25,9 km/h (4 Bft)
01.03.2011 17:00 5,2 C 71 % 1024,9 hPa 0,0 l/m O-SO 0,00 h 20 W/m 24,0 km/h (4 Bft)
01.03.2011 18:00 3,6 C 73 % 1025,7 hPa 0,0 l/m O 0,00 h 0 W/m 27,0 km/h (4 Bft)
01.03.2011 19:00 2,5 C 72 % 1026,2 hPa 0,0 l/m O 0,00 h 0 W/m 27,1 km/h (4 Bft)
01.03.2011 20:00 1,2 C 76 % 1026,4 hPa 0,0 l/m NO 0,00 h 0 W/m 30,2 km/h (5 Bft)
01.03.2011 21:00 0,6 C 78 % 1026,3 hPa 0,0 l/m O-SO 0,00 h 0 W/m 27,4 km/h (4 Bft)
01.03.2011 22:00 0,5 C 78 % 1025,8 hPa 0,0 l/m O-NO 0,00 h 0 W/m 26,0 km/h (4 Bft)
01.03.2011 23:00 0,2 C 79 % 1025,6 hPa 0,0 l/m O 0,00 h 0 W/m 23,3 km/h (4 Bft)
02.03.2011 00:00 -0,1 C 80 % 1025,4 hPa 0,0 l/m O-NO 0,00 h 0 W/m 24,3 km/h (4 Bft)
02.03.2011 01:00 -0,4 C 81 % 1025,2 hPa 0,0 l/m O 0,00 h 0 W/m 25,7 km/h (4 Bft)
02.03.2011 02:00 -0,8 C 82 % 1024,8 hPa 0,0 l/m O-SO 0,00 h 0 W/m 25,1 km/h (4 Bft)
02.03.2011 03:00 -1,2 C 83 % 1024,3 hPa 0,0 l/m O 0,00 h 0 W/m 25,9 km/h (4 Bft)
02.03.2011 04:00 -1,3 C 83 % 1023,9 hPa 0,0 l/m O 0,00 h 0 W/m 28,9 km/h (5 Bft)
02.03.2011 05:00 -1,3 C 81 % 1023,8 hPa 0,0 l/m O-NO 0,00 h 0 W/m 30,0 km/h (5 Bft)
02.03.2011 06:00 -1,5 C 80 % 1023,8 hPa 0,0 l/m O-NO 0,00 h 0 W/m 28,6 km/h (4 Bft)
02.03.2011 07:00 -1,7 C 78 % 1023,7 hPa 0,0 l/m O-NO 0,00 h 25 W/m 27,4 km/h (4 Bft)
02.03.2011 08:00 -1,1 C 75 % 1023,6 hPa 0,0 l/m O 0,00 h 60 W/m 34,9 km/h (5 Bft)
02.03.2011 09:00 -0,1 C 68 % 1023,3 hPa 0,0 l/m O-SO 0,33 h 168 W/m 35,1 km/h (5 Bft)
02.03.2011 10:00 1,5 C 60 % 1023,0 hPa 0,0 l/m O-NO 0,58 h 369 W/m 33,1 km/h (5 Bft)
02.03.2011 11:00 3,1 C 53 % 1022,4 hPa 0,0 l/m NO 1,00 h 549 W/m 36,2 km/h (5 Bft)
02.03.2011 12:00 4,3 C 47 % 1022,1 hPa 0,0 l/m NO 1,00 h 572 W/m 38,6 km/h (5 Bft)
02.03.2011 13:00 5,4 C 44 % 1021,2 hPa 0,0 l/m O 1,00 h 543 W/m 40,0 km/h (6 Bft)
02.03.2011 14:00 5,7 C 44 % 1020,9 hPa 0,0 l/m O 0,83 h 401 W/m 43,0 km/h (6 Bft)
02.03.2011 15:00 5,4 C 44 % 1021,4 hPa 0,0 l/m O 1,00 h 331 W/m 43,5 km/h (6 Bft)
02.03.2011 16:00 4,4 C 46 % 1021,8 hPa 0,0 l/m O 0,42 h 127 W/m 45,6 km/h (6 Bft)
02.03.2011 17:00 3,6 C 52 % 1022,1 hPa 0,0 l/m O 0,08 h 31 W/m 34,3 km/h (5 Bft)
02.03.2011 18:00 2,7 C 57 % 1022,5 hPa 0,0 l/m O-NO 0,00 h 5 W/m 30,3 km/h (5 Bft)
02.03.2011 19:00 2,0 C 59 % 1022,7 hPa 0,0 l/m O-NO 0,00 h 0 W/m 24,5 km/h (4 Bft)
02.03.2011 20:00 1,4 C 60 % 1023,1 hPa 0,0 l/m O-NO 0,00 h 0 W/m 24,7 km/h (4 Bft)
02.03.2011 21:00 0,9 C 62 % 1023,3 hPa 0,0 l/m O-NO 0,00 h 0 W/m 27,1 km/h (4 Bft)
02.03.2011 22:00 0,2 C 65 % 1023,2 hPa 0,0 l/m O-NO 0,00 h 0 W/m 19,7 km/h (3 Bft)
02.03.2011 23:00 -0,4 C 68 % 1023,1 hPa 0,0 l/m O-NO 0,00 h 0 W/m 24,0 km/h (4 Bft)
03.03.2011 00:00 -1,0 C 70 % 1023,3 hPa 0,0 l/m O-NO 0,00 h 0 W/m 19,6 km/h (3 Bft)
03.03.2011 01:00 -1,4 C 72 % 1023,3 hPa 0,0 l/m O-NO 0,00 h 0 W/m 17,7 km/h (3 Bft)
03.03.2011 02:00 -1,9 C 74 % 1023,2 hPa 0,0 l/m O-NO 0,00 h 0 W/m 14,4 km/h (3 Bft)
03.03.2011 03:00 -2,3 C 76 % 1023,0 hPa 0,0 l/m O-NO 0,00 h 0 W/m 13,6 km/h (3 Bft)
03.03.2011 04:00 -2,6 C 78 % 1023,0 hPa 0,0 l/m NO 0,00 h 0 W/m 11,7 km/h (2 Bft)
03.03.2011 05:00 -3,0 C 80 % 1023,2 hPa 0,0 l/m NO 0,00 h 0 W/m 9,8 km/h (2 Bft)
03.03.2011 06:00 -3,4 C 82 % 1023,4 hPa 0,0 l/m NO 0,00 h 0 W/m 6,0 km/h (2 Bft)
03.03.2011 07:00 -3,5 C 83 % 1023,6 hPa 0,0 l/m NO 0,08 h 26 W/m 4,9 km/h (1 Bft)
03.03.2011 08:00 -2,6 C 81 % 1024,1 hPa 0,0 l/m NO 0,00 h 79 W/m 10,7 km/h (2 Bft)
03.03.2011 09:00 -1,5 C 77 % 1024,5 hPa 0,0 l/m O-NO 0,42 h 231 W/m 14,4 km/h (3 Bft)
03.03.2011 10:00 -0,1 C 72 % 1024,7 hPa 0,0 l/m O-NO 0,67 h 372 W/m 14,4 km/h (3 Bft)
03.03.2011 11:00 1,0 C 68 % 1024,8 hPa 0,0 l/m NO 0,92 h 517 W/m 15,4 km/h (3 Bft)
03.03.2011 12:00 2,2 C 64 % 1024,8 hPa 0,0 l/m NO 0,83 h 507 W/m 17,4 km/h (3 Bft)
03.03.2011 13:00 3,3 C 61 % 1024,7 hPa 0,0 l/m O-NO 0,83 h 528 W/m 17,7 km/h (3 Bft)
03.03.2011 14:00 4,2 C 60 % 1024,3 hPa 0,0 l/m O-NO 0,83 h 392 W/m 17,8 km/h (3 Bft)
03.03.2011 15:00 4,7 C 58 % 1024,2 hPa 0,0 l/m O 1,00 h 304 W/m 18,5 km/h (3 Bft)
03.03.2011 16:00 4,6 C 59 % 1024,3 hPa 0,0 l/m O 0,42 h 133 W/m 18,8 km/h (3 Bft)
03.03.2011 17:00 3,6 C 63 % 1024,9 hPa 0,0 l/m O 0,00 h 32 W/m 15,4 km/h (3 Bft)
03.03.2011 18:00 2,4 C 69 % 1025,2 hPa 0,0 l/m O 0,00 h 5 W/m 6,9 km/h (2 Bft)
03.03.2011 19:00 1,3 C 74 % 1025,4 hPa 0,0 l/m O-NO 0,00 h 0 W/m 5,3 km/h (1 Bft)
03.03.2011 20:00 0,1 C 80 % 1025,6 hPa 0,0 l/m N-NO 0,00 h 0 W/m 4,7 km/h (1 Bft)
03.03.2011 21:00 -0,4 C 83 % 1025,8 hPa 0,0 l/m N-NO 0,00 h 0 W/m 5,7 km/h (1 Bft)
03.03.2011 22:00 -0,3 C 83 % 1026,2 hPa 0,0 l/m NO 0,00 h 0 W/m 10,5 km/h (2 Bft)
03.03.2011 23:00 -0,6 C 84 % 1026,2 hPa 0,0 l/m N-NO 0,00 h 0 W/m 9,9 km/h (2 Bft)
04.03.2011 00:00 -1,1 C 87 % 1026,4 hPa 0,0 l/m NO 0,00 h 0 W/m 9,0 km/h (2 Bft)
04.03.2011 01:00 -1,7 C 89 % 1026,8 hPa 0,0 l/m N-NO 0,00 h 0 W/m 9,7 km/h (2 Bft)
04.03.2011 02:00 -2,0 C 90 % 1027,1 hPa 0,0 l/m NO 0,00 h 0 W/m 8,0 km/h (2 Bft)
04.03.2011 03:00 -2,3 C 91 % 1027,3 hPa 0,0 l/m N-NO 0,00 h 0 W/m 5,7 km/h (1 Bft)
04.03.2011 04:00 -2,7 C 92 % 1027,4 hPa 0,0 l/m N 0,00 h 0 W/m 6,0 km/h (2 Bft)
04.03.2011 05:00 -3,0 C 93 % 1027,5 hPa 0,0 l/m N 0,00 h 0 W/m 6,6 km/h (2 Bft)
04.03.2011 06:00 -2,9 C 94 % 1027,5 hPa 0,0 l/m NO 0,00 h 0 W/m 8,3 km/h (2 Bft)
04.03.2011 07:00 -2,5 C 94 % 1027,8 hPa 0,0 l/m NO 0,00 h 20 W/m 8,7 km/h (2 Bft)
04.03.2011 08:00 -2,2 C 94 % 1028,1 hPa 0,0 l/m NO 0,00 h 55 W/m 10,2 km/h (2 Bft)
04.03.2011 09:00 -1,9 C 93 % 1028,4 hPa 0,0 l/m O-NO 0,00 h 102 W/m 12,1 km/h (2 Bft)
04.03.2011 10:00 -1,3 C 92 % 1028,6 hPa 0,0 l/m NO 0,00 h 194 W/m 10,8 km/h (2 Bft)
04.03.2011 11:00 -0,4 C 89 % 1028,5 hPa 0,0 l/m O-NO 0,00 h 244 W/m 12,1 km/h (2 Bft)
04.03.2011 12:00 0,5 C 86 % 1028,3 hPa 0,0 l/m N-NO 0,00 h 270 W/m 12,8 km/h (3 Bft)
04.03.2011 13:00 2,1 C 81 % 1027,4 hPa 0,0 l/m O-NO 0,67 h 430 W/m 13,2 km/h (3 Bft)
04.03.2011 14:00 3,5 C 76 % 1026,8 hPa 0,0 l/m N-NO 0,83 h 387 W/m 13,8 km/h (3 Bft)
04.03.2011 15:00 3,8 C 76 % 1026,4 hPa 0,0 l/m N-NO 1,00 h 312 W/m 14,8 km/h (3 Bft)
04.03.2011 16:00 3,3 C 78 % 1026,2 hPa 0,0 l/m N-NO 0,42 h 139 W/m 13,4 km/h (3 Bft)
04.03.2011 17:00 2,1 C 82 % 1026,4 hPa 0,0 l/m NO 0,00 h 40 W/m 10,9 km/h (2 Bft)
04.03.2011 18:00 0,6 C 87 % 1026,4 hPa 0,0 l/m N 0,00 h 5 W/m 7,4 km/h (2 Bft)
04.03.2011 19:00 0,0 C 89 % 1026,4 hPa 0,0 l/m O-NO 0,00 h 0 W/m 6,6 km/h (2 Bft)
04.03.2011 20:00 -0,6 C 91 % 1026,4 hPa 0,0 l/m O-NO 0,00 h 0 W/m 4,0 km/h (1 Bft)
04.03.2011 21:00 -1,2 C 92 % 1026,3 hPa 0,0 l/m N-NO 0,00 h 0 W/m 3,5 km/h (1 Bft)
04.03.2011 22:00 -1,4 C 92 % 1026,2 hPa 0,0 l/m N-NO 0,00 h 0 W/m 4,3 km/h (1 Bft)
04.03.2011 23:00 -2,0 C 94 % 1026,0 hPa 0,0 l/m N-NO 0,00 h 0 W/m 3,7 km/h (1 Bft)
05.03.2011 00:00 -2,3 C 95 % 1025,7 hPa 0,0 l/m N-NO 0,00 h 0 W/m 4,1 km/h (1 Bft)
05.03.2011 01:00 -2,4 C 95 % 1025,4 hPa 0,0 l/m N-NO 0,00 h 0 W/m 4,3 km/h (1 Bft)
05.03.2011 02:00 -2,6 C 95 % 1024,9 hPa 0,0 l/m N 0,00 h 0 W/m 2,5 km/h (1 Bft)
05.03.2011 03:00 -3,1 C 95 % 1024,6 hPa 0,0 l/m N 0,00 h 0 W/m 3,2 km/h (1 Bft)
05.03.2011 04:00 -3,3 C 96 % 1024,3 hPa 0,0 l/m N 0,00 h 0 W/m 0,9 km/h (0 Bft)
05.03.2011 05:00 -3,8 C 95 % 1024,2 hPa 0,0 l/m N 0,00 h 0 W/m 0,0 km/h (0 Bft)
05.03.2011 06:00 -4,3 C 95 % 1024,2 hPa 0,0 l/m N 0,00 h 0 W/m 0,1 km/h (0 Bft)
05.03.2011 07:00 -4,9 C 96 % 1024,2 hPa 0,0 l/m N 0,00 h 29 W/m 0,1 km/h (0 Bft)
05.03.2011 08:00 -4,1 C 97 % 1024,5 hPa 0,0 l/m N 0,00 h 95 W/m 0,5 km/h (0 Bft)
05.03.2011 09:00 -2,8 C 97 % 1024,4 hPa 0,0 l/m N 0,00 h 146 W/m 0,1 km/h (0 Bft)
05.03.2011 10:00 -1,4 C 98 % 1024,3 hPa 0,0 l/m S-SW 0,00 h 216 W/m 2,0 km/h (1 Bft)
05.03.2011 11:00 -0,1 C 97 % 1024,1 hPa 0,0 l/m S-SW 0,58 h 352 W/m 4,9 km/h (1 Bft)
05.03.2011 12:00 2,4 C 86 % 1023,5 hPa 0,0 l/m SO 1,00 h 540 W/m 4,4 km/h (1 Bft)
05.03.2011 13:00 5,4 C 74 % 1022,3 hPa 0,0 l/m N-NO 1,00 h 542 W/m 9,2 km/h (2 Bft)
05.03.2011 14:00 7,4 C 63 % 1021,6 hPa 0,0 l/m O-SO 0,83 h 401 W/m 12,5 km/h (3 Bft)
05.03.2011 15:00 8,0 C 58 % 1021,1 hPa 0,0 l/m O-NO 1,00 h 333 W/m 11,3 km/h (2 Bft)
05.03.2011 16:00 8,1 C 58 % 1020,9 hPa 0,0 l/m NO 0,58 h 153 W/m 9,8 km/h (2 Bft)
05.03.2011 17:00 7,3 C 58 % 1021,0 hPa 0,0 l/m O 0,00 h 37 W/m 7,9 km/h (2 Bft)
05.03.2011 18:00 4,3 C 70 % 1021,5 hPa 0,0 l/m N 0,08 h 7 W/m 1,3 km/h (1 Bft)
05.03.2011 19:00 1,5 C 81 % 1022,0 hPa 0,0 l/m N 0,00 h 0 W/m 0,5 km/h (0 Bft)
05.03.2011 20:00 0,4 C 87 % 1022,4 hPa 0,0 l/m N 0,00 h 0 W/m 0,0 km/h (0 Bft)
05.03.2011 21:00 -0,7 C 91 % 1022,7 hPa 0,0 l/m N 0,00 h 0 W/m 0,0 km/h (0 Bft)
05.03.2011 22:00 -1,2 C 92 % 1022,8 hPa 0,0 l/m N 0,00 h 0 W/m 0,1 km/h (0 Bft)
05.03.2011 23:00 -1,3 C 93 % 1022,8 hPa 0,0 l/m N 0,00 h 0 W/m 0,4 km/h (0 Bft)
06.03.2011 00:00 -1,3 C 92 % 1022,6 hPa 0,0 l/m N 0,00 h 0 W/m 0,3 km/h (0 Bft)
06.03.2011 01:00 -1,3 C 92 % 1022,5 hPa 0,0 l/m N-NO 0,00 h 0 W/m 3,2 km/h (1 Bft)
06.03.2011 02:00 -1,2 C 92 % 1022,2 hPa 0,0 l/m N-NO 0,00 h 0 W/m 2,7 km/h (1 Bft)
06.03.2011 03:00 -1,5 C 92 % 1021,9 hPa 0,0 l/m N 0,00 h 0 W/m 2,0 km/h (1 Bft)
06.03.2011 04:00 -1,7 C 91 % 1022,0 hPa 0,0 l/m N 0,00 h 0 W/m 5,5 km/h (1 Bft)
06.03.2011 05:00 -1,9 C 91 % 1022,3 hPa 0,0 l/m N-NW 0,00 h 0 W/m 4,8 km/h (1 Bft)
06.03.2011 06:00 -2,4 C 91 % 1022,7 hPa 0,0 l/m NO 0,00 h 5 W/m 3,1 km/h (1 Bft)
06.03.2011 07:00 -2,2 C 92 % 1023,1 hPa 0,0 l/m NO 0,08 h 32 W/m 3,9 km/h (1 Bft)
06.03.2011 08:00 -1,3 C 92 % 1023,5 hPa 0,0 l/m NO 0,00 h 95 W/m 9,1 km/h (2 Bft)
06.03.2011 09:00 -1,3 C 92 % 1024,4 hPa 0,0 l/m NO 0,00 h 85 W/m 16,2 km/h (3 Bft)
06.03.2011 10:00 -1,3 C 92 % 1024,8 hPa 0,0 l/m NO 0,00 h 100 W/m 13,8 km/h (3 Bft)
06.03.2011 11:00 -1,2 C 91 % 1025,0 hPa 0,0 l/m O-NO 0,00 h 96 W/m 14,8 km/h (3 Bft)
06.03.2011 12:00 -0,9 C 89 % 1025,1 hPa 0,0 l/m O 0,00 h 112 W/m 15,6 km/h (3 Bft)
06.03.2011 13:00 -0,6 C 87 % 1024,9 hPa 0,0 l/m NO 0,00 h 108 W/m 14,1 km/h (3 Bft)
06.03.2011 14:00 0,2 C 81 % 1024,8 hPa 0,0 l/m O-NO 0,00 h 145 W/m 14,6 km/h (3 Bft)
06.03.2011 15:00 1,3 C 73 % 1025,1 hPa 0,0 l/m O 0,33 h 194 W/m 14,6 km/h (3 Bft)
06.03.2011 16:00 1,2 C 71 % 1025,3 hPa 0,0 l/m O 0,00 h 97 W/m 15,8 km/h (3 Bft)
06.03.2011 17:00 0,7 C 71 % 1026,0 hPa 0,0 l/m O-NO 0,00 h 32 W/m 14,9 km/h (3 Bft)
06.03.2011 18:00 0,3 C 70 % 1026,6 hPa 0,0 l/m O-NO 0,00 h 5 W/m 15,8 km/h (3 Bft)
06.03.2011 19:00 0,2 C 71 % 1027,1 hPa 0,0 l/m O-NO 0,00 h 0 W/m 11,6 km/h (2 Bft)
06.03.2011 20:00 0,2 C 72 % 1027,4 hPa 0,0 l/m O-NO 0,00 h 0 W/m 12,8 km/h (3 Bft)
06.03.2011 21:00 -0,3 C 74 % 1027,8 hPa 0,0 l/m NO 0,00 h 0 W/m 12,6 km/h (3 Bft)
06.03.2011 22:00 -0,8 C 76 % 1027,9 hPa 0,0 l/m O-NO 0,00 h 0 W/m 8,8 km/h (2 Bft)
06.03.2011 23:00 -1,2 C 77 % 1028,0 hPa 0,0 l/m O-NO 0,00 h 0 W/m 11,6 km/h (2 Bft)
Min-Datum _ 05.03.11 02.03.11 28.02.11 - - - - 03.03.11
_ Min-Zeit 07:15 14:05 00:05 - - - - 07:15
Minimum _ -5,1 C 42 % 1017,3 hPa - - - - 0,0 km/h (0 Bft)
Max-Datum _ 05.03.11 05.03.11 04.03.11 28.02.11 - 01.03.11 03.03.11 02.03.11
_ Max-Zeit 15:50 09:30 10:05 00:00 - 10:05 13:05 15:15
Maximum _ 8,3 C 98 % 1028,7 hPa 0,0 l/m - 0,08 h 673 W/m 64,4 km/h
O (8 Bft)
Durchschnitt _ 0,8 C 81 % 1023,9 hPa #0,0 l/m O-NO #26:30 h 192 W/m 13,8 km/h (3 Bft)